Time;durP1;ratioP1;P1;durP2;ratioP2;P2;SDS_P1;SDS_P2;PMS_P1;PMS_P2;Temp;Humidity;BMP_temperature;BMP_pressure;BME280_temperature;BME280_humidity;BME280_pressure;Samples;Min_cycle;Max_cycle;Signal;HPM_P1;HPM_P2
2022/09/22 06:55:00;;;;;;;7.95;5.30;;;;;;;4.56;100.00;99676.22;5117210;27;20374;-74
2022/09/22 06:57:29;;;;;;;11.90;6.22;;;;;;;4.92;100.00;99707.19;5127899;28;20043;-75
2022/09/22 06:59:55;;;;;;;11.52;5.75;;;;;;;4.94;100.00;99685.50;5126311;28;20111;-75
2022/09/22 07:02:28;;;;;;;6.72;4.80;;;;;;;5.03;100.00;99683.81;5119733;28;20054;-75
2022/09/22 07:04:57;;;;;;;7.70;4.82;;;;;;;5.16;100.00;99683.56;5125474;28;20419;-75
2022/09/22 07:07:25;;;;;;;9.80;4.82;;;;;;;5.38;100.00;99691.44;5127749;28;20437;-75
2022/09/22 07:09:52;;;;;;;10.05;4.45;;;;;;;5.50;100.00;99684.09;5126835;28;20494;-75
2022/09/22 07:12:21;;;;;;;6.82;4.95;;;;;;;5.66;100.00;99673.59;5124323;28;20490;-75
2022/09/22 07:14:49;;;;;;;7.22;4.68;;;;;;;5.90;100.00;99675.03;5123741;27;20082;-75
2022/09/22 07:17:16;;;;;;;8.60;4.30;;;;;;;6.00;100.00;99691.25;5120746;28;20047;-75
2022/09/22 07:19:44;;;;;;;8.13;4.53;;;;;;;6.15;100.00;99688.97;5124493;28;20508;-75
2022/09/22 07:22:11;;;;;;;8.20;4.63;;;;;;;6.19;100.00;99671.50;5114483;28;20048;-75
2022/09/22 07:24:38;;;;;;;9.82;4.22;;;;;;;6.47;100.00;99688.59;5120877;28;20459;-75
2022/09/22 07:27:05;;;;;;;6.57;3.67;;;;;;;6.56;100.00;99697.69;5123444;28;20048;-75
2022/09/22 07:29:33;;;;;;;7.32;3.97;;;;;;;6.54;100.00;99691.59;5125045;27;20090;-75
2022/09/22 07:32:01;;;;;;;7.40;4.07;;;;;;;6.55;100.00;99696.00;5127973;28;20043;-75
2022/09/22 07:34:27;;;;;;;8.82;4.28;;;;;;;6.47;100.00;99683.22;5127275;28;20043;-75
2022/09/22 07:36:54;;;;;;;6.68;4.13;;;;;;;6.62;100.00;99671.94;5122009;28;20059;-75
2022/09/22 07:39:20;;;;;;;6.13;3.78;;;;;;;6.75;100.00;99672.47;5116003;28;20051;-75
2022/09/22 07:41:47;;;;;;;6.85;4.18;;;;;;;7.05;100.00;99692.13;5125094;28;20047;-75
2022/09/22 07:47:00;;;;;;;7.10;4.13;;;;;;;7.12;100.00;99676.16;5117147;28;20051;-75
2022/09/22 07:49:27;;;;;;;8.55;4.55;;;;;;;7.24;100.00;99669.53;5125876;28;20152;-75
2022/09/22 07:51:56;;;;;;;6.40;3.85;;;;;;;7.35;100.00;99684.72;5122985;28;20062;-75
2022/09/22 07:54:23;;;;;;;18.85;4.40;;;;;;;7.37;100.00;99672.72;5125031;28;20463;-75
2022/09/22 07:56:50;;;;;;;5.32;3.38;;;;;;;7.53;100.00;99684.75;5125696;27;20455;-75
2022/09/22 07:59:17;;;;;;;8.95;5.00;;;;;;;7.54;100.00;99662.09;5120978;27;20075;-75
2022/09/22 08:01:46;;;;;;;5.13;3.58;;;;;;;7.56;100.00;99662.81;5116614;28;20135;-75
2022/09/22 08:04:15;;;;;;;8.05;3.70;;;;;;;7.69;100.00;99660.53;5115719;27;20043;-75
2022/09/22 08:06:42;;;;;;;6.80;3.88;;;;;;;7.77;100.00;99662.50;5110464;28;20125;-76
2022/09/22 08:09:10;;;;;;;7.35;3.83;;;;;;;7.92;100.00;99662.81;5112373;28;20129;-75
2022/09/22 08:11:37;;;;;;;8.32;3.90;;;;;;;8.03;100.00;99672.53;5113078;28;20366;-75
2022/09/22 08:14:05;;;;;;;12.68;4.47;;;;;;;8.13;100.00;99674.16;5100837;28;20044;-75
2022/09/22 08:16:33;;;;;;;13.35;3.30;;;;;;;8.09;100.00;99656.50;5107238;28;20043;-75
2022/09/22 08:19:09;;;;;;;13.90;3.42;;;;;;;8.10;100.00;99658.22;5103816;28;20179;-75
2022/09/22 08:21:38;;;;;;;7.32;4.07;;;;;;;8.29;100.00;99665.28;5097221;28;20048;-75
2022/09/22 08:24:06;;;;;;;5.72;3.88;;;;;;;8.31;100.00;99649.75;5112581;28;20054;-76
2022/09/22 08:26:35;;;;;;;5.93;3.65;;;;;;;8.37;100.00;99644.69;5104884;28;20145;-76
2022/09/22 08:29:02;;;;;;;5.07;3.37;;;;;;;8.46;100.00;99641.94;5110756;28;20113;-76
2022/09/22 08:31:29;;;;;;;8.60;4.00;;;;;;;8.74;100.00;99659.88;5104988;27;20070;-76
2022/09/22 08:33:56;;;;;;;6.03;3.53;;;;;;;8.78;100.00;99672.09;5109433;28;20490;-76
2022/09/22 08:36:23;;;;;;;6.82;3.83;;;;;;;8.77;100.00;99649.53;5110023;28;20088;-76
2022/09/22 08:38:51;;;;;;;6.03;3.28;;;;;;;8.85;100.00;99633.31;5102465;28;20135;-76
2022/09/22 08:41:26;;;;;;;6.55;3.83;;;;;;;9.02;99.62;99653.22;5112714;28;20051;-76
2022/09/22 08:43:55;;;;;;;5.70;2.97;;;;;;;9.04;99.34;99648.47;5100855;28;20466;-76
2022/09/22 08:46:28;;;;;;;11.15;3.38;;;;;;;9.34;100.00;99646.22;5104313;28;20505;-76
2022/09/22 08:51:54;;;;;;;8.80;3.63;;;;;;;9.55;97.09;99626.75;5107880;28;20051;-76
2022/09/22 08:54:26;;;;;;;5.90;3.65;;;;;;;9.66;96.51;99643.75;5105864;28;20040;-76
2022/09/22 08:57:09;;;;;;;3.97;2.85;;;;;;;9.91;96.59;99655.50;5105398;28;20486;-76
2022/09/22 08:59:43;;;;;;;10.90;3.58;;;;;;;9.99;94.87;99639.19;5111143;28;20052;-76
2022/09/22 09:02:38;;;;;;;11.10;3.15;;;;;;;10.12;94.32;99646.84;5103149;28;20423;-76
2022/09/22 09:05:30;;;;;;;6.57;3.25;;;;;;;10.35;94.59;99638.03;5101270;28;20054;-76
2022/09/22 09:08:06;;;;;;;14.10;2.70;;;;;;;10.37;91.58;99636.84;5098891;28;20052;-76
2022/09/22 09:10:46;;;;;;;11.50;2.97;;;;;;;10.43;92.98;99633.44;5107430;28;20044;-76
2022/09/22 09:13:30;;;;;;;10.48;2.72;;;;;;;10.58;91.45;99638.13;5107392;28;20058;-76
2022/09/22 09:16:23;;;;;;;11.35;2.92;;;;;;;10.67;91.34;99619.94;5111369;28;20365;-76
2022/09/22 09:18:55;;;;;;;4.93;2.33;;;;;;;10.78;91.99;99625.00;5103037;28;20059;-76
2022/09/22 09:21:23;;;;;;;7.25;2.22;;;;;;;11.15;89.87;99620.75;5091710;28;20063;-76
2022/09/22 09:23:54;;;;;;;5.03;1.60;;;;;;;11.56;84.67;99627.84;5099498;28;20048;-76
2022/09/22 09:26:23;;;;;;;9.30;2.72;;;;;;;11.54;82.19;99617.16;5103118;28;20047;-76
2022/09/22 09:28:55;;;;;;;3.17;2.00;;;;;;;11.71;81.15;99634.22;5103532;28;20101;-76
2022/09/22 09:31:28;;;;;;;3.40;1.58;;;;;;;11.85;77.89;99606.19;5105780;28;20047;-76
2022/09/22 09:33:59;;;;;;;3.22;1.85;;;;;;;12.03;78.99;99618.72;5101879;28;20048;-76
2022/09/22 09:36:30;;;;;;;3.05;2.05;;;;;;;12.28;80.80;99629.38;5110750;28;20109;-76
2022/09/22 09:38:57;;;;;;;5.35;1.67;;;;;;;12.31;75.60;99615.38;5103431;28;20058;-76
2022/09/22 09:41:31;;;;;;;2.38;1.63;;;;;;;12.40;72.06;99611.53;5103736;28;20047;-76
2022/09/22 09:43:59;;;;;;;5.07;1.48;;;;;;;12.49;71.84;99610.41;5101933;28;20051;-76
2022/09/22 09:46:39;;;;;;;3.10;1.58;;;;;;;12.55;72.71;99614.28;5111270;27;20402;-76
2022/09/22 09:49:13;;;;;;;5.10;1.67;;;;;;;12.61;70.32;99604.50;5102480;28;20059;-76
2022/09/22 09:51:43;;;;;;;3.03;1.13;;;;;;;12.71;71.45;99603.19;5103596;28;20542;-76
2022/09/22 09:54:12;;;;;;;;;;;;;;;12.92;68.15;99620.69;5104534;28;20047;-76
2022/09/22 09:57:05;;;;;;;2.05;1.30;;;;;;;12.85;69.03;99606.09;5111845;28;19919;-76
2022/09/22 10:02:20;;;;;;;1.45;1.20;;;;;;;13.26;67.62;99630.16;5090717;28;20059;-76
2022/09/22 10:04:51;;;;;;;2.25;1.20;;;;;;;13.21;67.14;99611.59;5089759;28;20048;-76
2022/09/22 10:07:20;;;;;;;3.40;1.25;;;;;;;13.17;67.56;99588.47;5098740;28;20040;-76
2022/09/22 10:09:49;;;;;;;7.03;1.30;;;;;;;13.28;66.22;99604.34;5093297;28;20040;-76
2022/09/22 10:12:26;;;;;;;4.03;1.33;;;;;;;13.44;64.11;99591.53;5091456;28;20139;-76
2022/09/22 10:14:54;;;;;;;1.45;1.35;;;;;;;13.53;65.28;99590.34;5100695;28;20587;-76
2022/09/22 10:17:23;;;;;;;1.60;1.20;;;;;;;13.63;64.00;99599.09;5091041;28;20256;-76
2022/09/22 10:19:50;;;;;;;1.40;1.30;;;;;;;13.53;62.90;99586.78;5111320;28;20074;-76
2022/09/22 10:22:23;;;;;;;3.00;0.95;;;;;;;13.54;64.63;99604.88;5110626;28;20055;-76
2022/09/22 10:24:56;;;;;;;6.18;1.27;;;;;;;13.49;63.84;99594.53;5105715;28;20494;-76
2022/09/22 10:27:26;;;;;;;1.58;1.15;;;;;;;13.58;64.36;99592.53;5093644;28;20510;-76
2022/09/22 10:30:14;;;;;;;2.63;1.30;;;;;;;13.77;63.32;99586.41;5093329;28;20051;-76
2022/09/22 10:32:41;;;;;;;3.95;1.10;;;;;;;13.89;63.54;99559.41;5110629;28;20079;-76
2022/09/22 10:35:26;;;;;;;4.57;1.30;;;;;;;14.12;61.95;99561.06;5110949;28;20052;-76
2022/09/22 10:37:57;;;;;;;2.60;1.20;;;;;;;14.23;59.50;99573.34;5099597;28;20122;-76
2022/09/22 10:40:25;;;;;;;1.73;1.00;;;;;;;14.20;60.83;99557.34;5100055;28;20133;-76
2022/09/22 10:42:58;;;;;;;2.92;1.10;;;;;;;14.37;59.98;99560.63;5108227;28;20058;-76
2022/09/22 10:45:36;;;;;;;2.20;1.10;;;;;;;14.54;59.69;99570.19;5110139;28;20098;-76
2022/09/22 10:48:09;;;;;;;19.95;2.45;;;;;;;14.58;60.40;99549.59;5107820;28;20411;-76
2022/09/22 10:50:55;;;;;;;2.67;1.10;;;;;;;14.63;59.02;99552.63;5102639;28;20093;-76
2022/09/22 10:53:52;;;;;;;2.50;1.00;;;;;;;14.69;56.95;99559.16;5100567;28;20392;-76
2022/09/22 10:56:29;;;;;;;1.27;1.00;;;;;;;14.75;58.07;99557.50;5102023;28;20054;-76
2022/09/22 10:59:27;;;;;;;4.22;1.00;;;;;;;14.69;54.61;99568.22;5097721;28;20502;-76
2022/09/22 11:02:11;;;;;;;1.60;1.00;;;;;;;14.56;55.57;99554.44;5098839;28;20060;-76
2022/09/22 11:04:48;;;;;;;6.07;1.05;;;;;;;14.74;56.16;99569.47;5097298;28;20458;-76
2022/09/22 11:13:40;;;;;;;4.50;0.82;;;;;;;15.52;52.89;99563.69;5099844;28;20165;-76
2022/09/22 11:16:35;;;;;;;5.38;0.90;;;;;;;15.45;51.39;99538.19;5110115;28;20055;-76
2022/09/22 11:19:30;;;;;;;1.08;0.73;;;;;;;15.31;50.63;99531.81;5104733;28;20056;-76
2022/09/22 11:22:13;;;;;;;0.80;0.80;;;;;;;15.36;50.74;99523.84;5106689;28;20056;-76
2022/09/22 11:24:53;;;;;;;1.48;0.80;;;;;;;15.71;52.70;99546.44;5097017;28;20489;-77
2022/09/22 11:27:32;;;;;;;0.93;0.82;;;;;;;15.94;51.59;99531.50;5100530;28;20052;-76
2022/09/22 11:30:08;;;;;;;1.92;0.65;;;;;;;16.16;51.75;99525.81;5103614;28;20056;-76
2022/09/22 11:33:12;;;;;;;1.48;0.90;;;;;;;16.36;51.01;99534.00;5106951;28;20043;-76
2022/09/22 11:36:00;;;;;;;1.70;0.70;;;;;;;16.46;49.13;99526.19;5076086;28;20044;-76
2022/09/22 11:38:52;;;;;;;2.67;0.80;;;;;;;16.55;48.39;99513.91;5102113;28;20063;-76
2022/09/22 11:41:29;;;;;;;1.92;0.80;;;;;;;16.44;48.23;99507.19;5105253;28;20391;-76
2022/09/22 11:44:22;;;;;;;1.20;0.90;;;;;;;16.63;46.75;99504.59;5106700;28;20052;-76
2022/09/22 11:47:00;;;;;;;3.67;1.00;;;;;;;16.79;47.98;99504.09;5105554;28;20077;-76
2022/09/22 11:49:44;;;;;;;2.75;0.80;;;;;;;16.97;47.41;99511.66;5102359;28;20462;-76
2022/09/22 11:52:21;;;;;;;1.00;0.65;;;;;;;17.07;48.33;99491.13;5103673;28;20074;-76
2022/09/22 11:55:06;;;;;;;3.50;0.90;;;;;;;17.13;44.76;99493.84;5100576;28;20410;-76
2022/09/22 11:57:38;;;;;;;2.92;0.95;;;;;;;17.12;45.86;99489.41;5105436;28;20040;-76
2022/09/22 12:00:14;;;;;;;1.98;0.68;;;;;;;17.33;45.54;99490.16;5101948;28;20048;-76
2022/09/22 12:02:46;;;;;;;1.02;0.75;;;;;;;17.61;47.31;99492.47;5109262;28;20043;-76
2022/09/22 12:05:19;;;;;;;3.03;0.77;;;;;;;17.46;43.50;99483.69;5110366;28;20039;-75
2022/09/22 12:07:52;;;;;;;1.73;0.95;;;;;;;17.34;42.84;99484.44;5103557;28;20089;-75
2022/09/22 12:10:25;;;;;;;1.05;0.70;;;;;;;17.38;42.46;99483.97;5104340;28;20051;-76
2022/09/22 12:12:55;;;;;;;0.65;0.63;;;;;;;17.37;42.61;99499.59;5106813;28;20051;-76
2022/09/22 12:15:29;;;;;;;1.00;0.80;;;;;;;17.32;42.00;99481.03;5111394;28;20134;-76
2022/09/22 12:18:01;;;;;;;1.08;0.93;;;;;;;17.65;45.47;99496.47;5103892;28;20418;-76
2022/09/22 12:20:43;;;;;;;1.35;0.63;;;;;;;17.71;44.35;99482.91;5108202;28;20059;-77
2022/09/22 12:23:23;;;;;;;0.70;0.70;;;;;;;17.60;42.88;99470.69;5102445;28;20055;-76
2022/09/22 12:25:53;;;;;;;0.65;0.65;;;;;;;17.67;41.09;99468.75;5108766;28;20123;-76
2022/09/22 12:28:23;;;;;;;;;;;;;;;17.93;41.75;99492.47;5104875;28;20103;-76
2022/09/22 12:31:11;;;;;;;0.77;0.60;;;;;;;17.88;39.63;99470.25;5106329;28;20432;-76
2022/09/22 12:33:45;;;;;;;1.20;0.65;;;;;;;17.81;40.24;99452.97;5103562;28;20047;-76
2022/09/22 12:36:15;;;;;;;2.50;0.95;;;;;;;17.88;41.78;99456.50;5108410;28;20044;-76
2022/09/22 12:38:42;;;;;;;1.48;0.77;;;;;;;17.84;41.28;99461.63;5112232;28;20412;-76
2022/09/22 12:41:09;;;;;;;1.25;0.90;;;;;;;17.63;41.44;99460.09;5103531;28;20035;-76
2022/09/22 12:43:36;;;;;;;1.48;0.77;;;;;;;17.88;42.47;99478.50;5107180;28;20044;-76
2022/09/22 12:46:13;;;;;;;3.40;0.90;;;;;;;17.36;41.74;99448.47;5101062;28;20044;-76
2022/09/22 12:48:43;;;;;;;1.30;0.80;;;;;;;17.52;42.19;99453.44;5104225;28;20044;-77
2022/09/22 12:51:30;;;;;;;0.55;0.55;;;;;;;17.65;41.09;99440.63;5107457;28;20048;-76
2022/09/22 12:54:29;;;;;;;1.10;0.90;;;;;;;17.91;41.89;99456.09;5108013;28;20056;-76
2022/09/22 12:56:58;;;;;;;3.53;0.90;;;;;;;18.04;41.68;99439.44;5101282;27;20054;-76
2022/09/22 12:59:55;;;;;;;1.17;0.77;;;;;;;17.86;41.74;99458.66;5110207;28;20052;-76
2022/09/22 13:02:29;;;;;;;1.13;0.70;;;;;;;17.91;40.73;99433.25;5104226;28;20044;-76
2022/09/22 13:05:33;;;;;;;2.50;0.75;;;;;;;18.13;41.70;99453.75;5108890;28;20048;-76
2022/09/22 13:08:02;;;;;;;0.68;0.65;;;;;;;18.12;41.36;99457.56;5104607;28;20067;-76
2022/09/22 13:10:41;;;;;;;1.17;0.60;;;;;;;18.34;40.69;99438.72;5102561;28;20048;-76
2022/09/22 13:13:38;;;;;;;1.73;0.98;;;;;;;18.57;41.32;99457.28;5099975;28;20138;-76
2022/09/22 13:16:36;;;;;;;2.42;0.63;;;;;;;18.72;40.70;99448.63;5101262;28;20048;-76
2022/09/22 13:19:08;;;;;;;0.77;0.70;;;;;;;18.69;40.04;99443.59;5103377;28;20066;-77
2022/09/22 13:21:35;;;;;;;1.02;0.70;;;;;;;18.82;39.10;99425.19;5111373;28;20122;-76
2022/09/22 13:24:05;;;;;;;0.77;0.60;;;;;;;18.91;40.40;99438.47;5107652;28;20471;-76
2022/09/22 13:26:34;;;;;;;1.60;0.70;;;;;;;18.83;40.40;99424.97;5103249;28;20051;-76
2022/09/22 13:29:03;;;;;;;1.95;0.70;;;;;;;18.70;40.98;99433.44;5108504;28;20143;-76
2022/09/22 13:31:41;;;;;;;1.75;0.80;;;;;;;18.88;41.01;99444.44;5106514;28;20047;-76
2022/09/22 13:34:24;;;;;;;1.23;0.80;;;;;;;18.61;41.13;99421.88;5100873;28;20460;-76
2022/09/22 13:36:54;;;;;;;0.95;0.77;;;;;;;18.46;41.69;99418.69;5107294;28;20130;-76
2022/09/22 13:39:23;;;;;;;0.70;0.65;;;;;;;18.58;40.50;99414.91;5097951;28;20048;-76
2022/09/22 13:41:53;;;;;;;0.60;0.50;;;;;;;18.80;40.87;99439.19;5108371;28;20457;-76
2022/09/22 13:44:25;;;;;;;0.75;0.70;;;;;;;18.79;39.99;99423.78;5099508;28;20406;-76
2022/09/22 13:46:55;;;;;;;1.52;0.77;;;;;;;18.97;40.26;99425.69;5105156;28;20493;-76
2022/09/22 13:49:34;;;;;;;3.97;0.75;;;;;;;18.81;40.47;99402.34;5101484;28;20047;-76
2022/09/22 13:52:05;;;;;;;0.77;0.60;;;;;;;18.73;41.23;99405.44;5104151;28;20152;-76
2022/09/22 13:54:35;;;;;;;0.80;0.80;;;;;;;18.63;40.71;99416.97;5109135;28;20101;-76
2022/09/22 13:57:04;;;;;;;1.20;0.68;;;;;;;18.63;40.83;99413.38;5108076;28;20035;-76
2022/09/22 13:59:40;;;;;;;1.33;0.57;;;;;;;18.80;40.13;99416.34;5097744;28;20047;-76
2022/09/22 14:02:10;;;;;;;1.40;0.80;;;;;;;18.85;40.39;99419.25;5104088;28;20296;-77
2022/09/22 14:04:37;;;;;;;;;;;;;;;18.65;40.01;99420.34;5105778;28;20100;-77
2022/09/22 14:07:09;;;;;;;0.88;0.60;;;;;;;18.37;40.36;99416.25;5107418;28;19919;-76
2022/09/22 14:09:38;;;;;;;0.65;0.65;;;;;;;18.25;41.25;99409.81;5106846;28;20082;-76
2022/09/22 14:12:08;;;;;;;0.75;0.70;;;;;;;18.04;41.28;99389.94;5102315;28;20067;-76
2022/09/22 14:14:35;;;;;;;;;;;;;;;18.21;41.21;99409.41;5108117;28;20051;-76
2022/09/22 14:17:04;;;;;;;1.02;0.80;;;;;;;18.16;41.15;99394.69;5098409;28;19943;-77
2022/09/22 14:19:34;;;;;;;4.13;0.82;;;;;;;18.23;40.98;99400.94;5097925;28;20101;-76
2022/09/22 14:22:04;;;;;;;0.60;0.55;;;;;;;17.96;40.34;99392.13;5107874;28;20043;-76
2022/09/22 14:24:33;;;;;;;1.50;0.80;;;;;;;18.22;40.27;99382.75;5109169;28;20051;-76
2022/09/22 14:27:02;;;;;;;0.65;0.65;;;;;;;18.42;39.83;99404.53;5102016;28;20055;-76
2022/09/22 14:29:30;;;;;;;0.93;0.90;;;;;;;18.38;40.52;99371.13;5110699;28;20062;-76
2022/09/22 14:32:01;;;;;;;1.27;0.70;;;;;;;18.44;41.26;99401.56;5100048;28;20710;-76
2022/09/22 14:34:30;;;;;;;3.90;1.23;;;;;;;18.27;40.56;99401.34;5102643;28;20054;-76
2022/09/22 14:37:00;;;;;;;1.23;0.90;;;;;;;18.29;41.84;99393.69;5104608;28;20063;-76
2022/09/22 14:39:32;;;;;;;1.35;0.80;;;;;;;18.17;41.50;99386.22;5110069;28;20055;-76
2022/09/22 14:42:08;;;;;;;1.20;0.70;;;;;;;18.18;41.42;99378.78;5099048;28;20047;-76
2022/09/22 14:44:43;;;;;;;0.77;0.77;;;;;;;18.29;40.87;99389.03;5104910;28;20062;-76
2022/09/22 14:47:26;;;;;;;2.38;0.70;;;;;;;18.29;40.19;99380.78;5098817;28;20048;-76
2022/09/22 14:50:11;;;;;;;0.98;0.70;;;;;;;18.58;40.59;99379.13;5104537;28;20056;-76
2022/09/22 14:52:47;;;;;;;3.97;0.85;;;;;;;18.49;40.06;99377.78;5104995;28;20059;-76
2022/09/22 14:55:23;;;;;;;1.08;0.80;;;;;;;18.27;40.36;99380.16;5106439;28;20176;-76
2022/09/22 14:57:50;;;;;;;0.85;0.60;;;;;;;18.01;41.95;99367.56;5099966;28;20080;-76
2022/09/22 15:03:06;;;;;;;1.63;1.15;;;;;;;18.07;41.13;99382.31;5099229;28;20047;-76
2022/09/22 15:05:33;;;;;;;1.05;0.90;;;;;;;18.20;41.38;99377.50;5099558;28;20440;-76
2022/09/22 15:08:20;;;;;;;0.85;0.80;;;;;;;18.18;40.83;99379.63;5093723;28;20056;-76
2022/09/22 15:10:56;;;;;;;1.48;0.70;;;;;;;18.13;41.05;99346.47;5104765;28;20055;-76
2022/09/22 15:13:31;;;;;;;1.92;0.95;;;;;;;18.21;40.27;99348.88;5108433;28;20096;-76
2022/09/22 15:15:58;;;;;;;0.77;0.70;;;;;;;18.35;40.69;99368.84;5109161;28;20383;-76
2022/09/22 15:18:24;;;;;;;0.75;0.65;;;;;;;18.16;40.78;99335.00;5108997;28;20524;-76
2022/09/22 15:20:56;;;;;;;1.27;1.17;;;;;;;18.17;42.26;99336.69;5109064;28;20052;-76
2022/09/22 15:23:30;;;;;;;1.30;0.70;;;;;;;18.47;42.21;99362.56;5099123;28;20048;-76
2022/09/22 15:26:03;;;;;;;0.82;0.57;;;;;;;18.35;41.96;99357.84;5111714;28;20075;-76
2022/09/22 15:28:31;;;;;;;1.40;0.90;;;;;;;18.26;41.09;99359.22;5109275;28;20148;-76
2022/09/22 15:30:58;;;;;;;3.92;0.80;;;;;;;18.13;40.48;99360.22;5112743;28;20048;-76
2022/09/22 15:33:25;;;;;;;3.70;0.90;;;;;;;17.92;41.25;99344.19;5107400;27;20047;-76
2022/09/22 15:35:55;;;;;;;0.77;0.77;;;;;;;17.90;41.11;99363.66;5104976;28;20040;-76
2022/09/22 15:38:26;;;;;;;0.68;0.68;;;;;;;17.96;42.41;99364.63;5112521;28;20112;-76
2022/09/22 15:40:53;;;;;;;1.38;0.95;;;;;;;17.93;41.91;99341.19;5107389;28;20054;-76
2022/09/22 15:43:22;;;;;;;2.92;0.80;;;;;;;17.91;41.24;99342.50;5100840;28;20044;-76
2022/09/22 15:45:51;;;;;;;0.90;0.82;;;;;;;17.96;41.69;99337.13;5109109;28;20490;-76
2022/09/22 15:48:25;;;;;;;2.13;0.77;;;;;;;18.03;41.84;99343.41;5105702;28;20047;-76
2022/09/22 15:50:54;;;;;;;1.77;0.80;;;;;;;18.01;42.90;99345.56;5097193;28;20105;-76
2022/09/22 15:53:21;;;;;;;1.85;0.90;;;;;;;17.83;42.43;99338.94;5106008;28;20043;-76
2022/09/22 15:55:50;;;;;;;2.05;1.00;;;;;;;17.67;42.79;99347.78;5112324;28;20063;-76
2022/09/22 15:58:18;;;;;;;6.50;1.65;;;;;;;17.50;42.97;99336.53;5110285;28;20117;-76
2022/09/22 16:00:46;;;;;;;2.38;0.95;;;;;;;17.45;42.32;99334.47;5112349;28;20048;-76
2022/09/22 16:03:21;;;;;;;1.88;0.80;;;;;;;17.09;43.71;99325.03;5106247;28;20044;-76
2022/09/22 16:05:49;;;;;;;2.63;0.90;;;;;;;17.05;44.91;99323.81;5111057;28;20047;-79
2022/09/22 16:08:17;;;;;;;2.00;0.93;;;;;;;17.04;44.88;99335.88;5108949;28;20077;-78
2022/09/22 16:10:44;;;;;;;1.00;0.90;;;;;;;16.69;44.48;99321.72;5106109;28;20498;-78
2022/09/22 16:13:12;;;;;;;2.03;0.80;;;;;;;16.60;44.86;99318.38;5106142;28;20050;-78
2022/09/22 16:15:40;;;;;;;6.93;3.20;;;;;;;16.55;46.38;99337.44;5102127;28;20078;-79
2022/09/22 16:18:07;;;;;;;3.25;2.35;;;;;;;16.46;47.22;99325.88;5111316;28;20036;-79
2022/09/22 16:20:37;;;;;;;3.88;2.47;;;;;;;16.40;46.94;99343.22;5108156;28;20050;-80
2022/09/22 16:23:05;;;;;;;5.75;1.27;;;;;;;16.18;46.53;99334.44;5107270;28;20059;-80
2022/09/22 16:25:33;;;;;;;1.20;1.08;;;;;;;16.22;47.58;99341.16;5101085;28;20556;-80
2022/09/22 16:28:00;;;;;;;1.90;1.17;;;;;;;16.11;48.01;99337.22;5097200;28;20043;-80
2022/09/22 16:30:29;;;;;;;13.38;7.38;;;;;;;16.00;49.33;99330.47;5107835;28;20051;-83
